createdAt,value
2023-03-08T00:00:45.377Z,0.70
2023-03-08T00:03:15.437Z,0.73
2023-03-08T00:05:43.614Z,1.27
2023-03-08T00:08:11.942Z,0.73
2023-03-08T00:10:41.327Z,1.23
2023-03-08T00:13:09.289Z,1.27
2023-03-08T00:15:37.917Z,1.27
2023-03-08T00:18:06.401Z,0.60
2023-03-08T00:20:34.777Z,0.87
2023-03-08T00:23:02.725Z,0.50
2023-03-08T00:25:30.737Z,0.50
2023-03-08T00:28:00.068Z,1.77
2023-03-08T00:30:28.804Z,0.53
2023-03-08T00:32:56.762Z,0.93
2023-03-08T00:35:24.789Z,1.17
2023-03-08T00:37:52.736Z,0.93
2023-03-08T00:40:20.829Z,1.03
2023-03-08T00:42:48.770Z,0.93
2023-03-08T00:45:18.249Z,0.63
2023-03-08T00:47:46.179Z,1.63
2023-03-08T00:50:14.144Z,1.50
2023-03-08T00:52:42.122Z,0.97
2023-03-08T00:55:11.272Z,1.03
2023-03-08T00:57:39.250Z,1.30
2023-03-08T01:00:12.735Z,1.00
2023-03-08T01:02:42.049Z,1.40
2023-03-08T01:05:11.004Z,1.30
2023-03-08T01:07:38.984Z,1.33
2023-03-08T01:10:07.621Z,1.03
2023-03-08T01:12:37.027Z,1.13
2023-03-08T01:15:06.678Z,1.43
2023-03-08T01:17:34.723Z,1.23
2023-03-08T01:20:05.716Z,1.33
2023-03-08T01:22:33.810Z,0.90
2023-03-08T01:25:01.778Z,1.20
2023-03-08T01:27:29.714Z,1.70
2023-03-08T01:29:57.671Z,1.80
2023-03-08T01:32:25.628Z,1.33
2023-03-08T01:34:53.836Z,1.03
2023-03-08T01:37:23.217Z,1.40
2023-03-08T01:39:51.158Z,1.10
2023-03-08T01:42:19.092Z,1.43
2023-03-08T01:44:52.353Z,1.00
2023-03-08T01:47:22.367Z,1.00
2023-03-08T01:49:51.066Z,1.20
2023-03-08T01:52:24.478Z,1.40
2023-03-08T01:54:56.066Z,1.20
2023-03-08T01:57:27.060Z,1.30
2023-03-08T01:59:57.587Z,1.50
2023-03-08T02:02:31.764Z,1.27
2023-03-08T02:05:00.048Z,1.13
2023-03-08T02:07:29.350Z,1.83
2023-03-08T02:09:57.428Z,1.43
2023-03-08T02:12:25.607Z,1.50
2023-03-08T02:14:54.440Z,1.77
2023-03-08T02:17:23.095Z,1.90
2023-03-08T02:19:56.770Z,1.50
2023-03-08T02:22:25.106Z,1.23
2023-03-08T02:24:54.407Z,1.77
2023-03-08T02:27:26.993Z,1.63
2023-03-08T02:29:55.263Z,2.07
2023-03-08T02:32:23.318Z,1.90
2023-03-08T02:34:51.427Z,2.03
2023-03-08T02:37:19.416Z,1.77
2023-03-08T02:39:47.339Z,1.60
2023-03-08T02:42:16.677Z,1.80
2023-03-08T02:44:44.604Z,1.50
2023-03-08T02:47:12.796Z,1.97
2023-03-08T02:49:40.747Z,2.10
2023-03-08T02:52:08.944Z,2.17
2023-03-08T02:54:36.870Z,1.63
2023-03-08T02:57:05.009Z,1.47
2023-03-08T02:59:34.325Z,2.27
2023-03-08T03:02:02.325Z,2.00
2023-03-08T03:04:31.164Z,1.37
2023-03-08T03:06:59.632Z,2.33
2023-03-08T03:09:29.870Z,2.37
2023-03-08T03:11:57.820Z,2.23
2023-03-08T03:14:29.136Z,3.03
2023-03-08T03:16:59.164Z,3.17
2023-03-08T03:19:27.178Z,2.93
2023-03-08T03:21:55.134Z,2.23
2023-03-08T03:24:23.079Z,2.43
2023-03-08T03:26:51.473Z,1.90
2023-03-08T03:29:19.612Z,2.37
2023-03-08T03:31:48.607Z,2.43
2023-03-08T03:34:18.065Z,2.50
2023-03-08T03:36:46.016Z,2.47
2023-03-08T03:39:13.954Z,3.30
2023-03-08T03:41:41.922Z,2.50
2023-03-08T03:44:09.975Z,2.47
2023-03-08T03:46:38.055Z,2.70
2023-03-08T03:49:06.284Z,2.07
2023-03-08T03:51:35.784Z,2.93
2023-03-08T03:54:04.586Z,3.00
2023-03-08T03:56:33.837Z,2.73
2023-03-08T03:59:01.798Z,3.00
2023-03-08T04:01:31.938Z,1.97
2023-03-08T04:04:00.609Z,2.53
2023-03-08T04:06:30.386Z,2.33
2023-03-08T04:09:01.440Z,1.57
2023-03-08T04:11:34.342Z,3.30
2023-03-08T04:14:02.640Z,2.07
2023-03-08T04:16:32.225Z,2.77
2023-03-08T04:19:02.049Z,2.03
2023-03-08T04:21:31.072Z,3.23
2023-03-08T04:24:00.910Z,2.77
2023-03-08T04:26:29.188Z,2.60
2023-03-08T04:28:57.203Z,3.70
2023-03-08T04:31:27.331Z,3.50
2023-03-08T04:33:55.749Z,2.43
2023-03-08T04:36:24.112Z,3.13
2023-03-08T04:38:52.369Z,3.03
2023-03-08T04:41:21.941Z,3.63
2023-03-08T04:43:51.431Z,3.00
2023-03-08T04:46:21.863Z,3.50
2023-03-08T04:48:52.773Z,2.87
2023-03-08T04:51:21.201Z,2.37
2023-03-08T04:53:49.185Z,2.17
2023-03-08T04:56:17.927Z,3.03
2023-03-08T04:58:48.005Z,2.73
2023-03-08T05:01:17.574Z,3.23
2023-03-08T05:03:46.325Z,2.37
2023-03-08T05:06:15.068Z,2.77
2023-03-08T05:08:43.191Z,2.33
2023-03-08T05:11:18.748Z,2.57
2023-03-08T05:13:48.499Z,2.30
2023-03-08T05:16:16.760Z,2.70
2023-03-08T05:18:44.940Z,3.03
2023-03-08T05:21:16.045Z,2.13
2023-03-08T05:23:44.843Z,2.63
2023-03-08T05:26:14.669Z,2.90
2023-03-08T05:28:43.004Z,2.53
2023-03-08T05:31:14.057Z,2.90
2023-03-08T05:33:42.986Z,2.30
2023-03-08T05:36:12.535Z,2.30
2023-03-08T05:38:40.712Z,2.07
2023-03-08T05:41:10.702Z,2.67
2023-03-08T05:43:38.670Z,2.40
2023-03-08T05:46:09.611Z,2.53
2023-03-08T05:48:38.968Z,1.90
2023-03-08T05:51:07.701Z,3.07
2023-03-08T05:53:35.797Z,2.27
2023-03-08T05:56:09.901Z,2.17
2023-03-08T05:58:38.622Z,2.40
2023-03-08T06:01:14.183Z,3.50
2023-03-08T06:03:43.557Z,2.13
2023-03-08T06:06:11.523Z,2.17
2023-03-08T06:08:39.776Z,2.43
2023-03-08T06:11:08.336Z,2.20
2023-03-08T06:13:37.154Z,1.57
2023-03-08T06:16:06.284Z,2.00
2023-03-08T06:18:36.304Z,1.80
2023-03-08T06:21:08.194Z,2.53
2023-03-08T06:23:37.062Z,2.60
2023-03-08T06:26:06.726Z,2.00
2023-03-08T06:28:34.725Z,2.00
2023-03-08T06:31:02.921Z,1.63
2023-03-08T06:33:33.118Z,1.50
2023-03-08T06:36:02.813Z,1.57
2023-03-08T06:38:33.923Z,2.57
2023-03-08T06:41:02.675Z,2.10
2023-03-08T06:43:31.067Z,2.40
2023-03-08T06:45:59.300Z,1.93
2023-03-08T06:48:27.258Z,2.33
2023-03-08T06:50:55.222Z,2.03
2023-03-08T06:53:23.191Z,2.50
2023-03-08T06:55:52.508Z,2.37
2023-03-08T06:58:22.780Z,2.43
2023-03-08T07:00:51.622Z,2.20
2023-03-08T07:03:19.607Z,2.50
2023-03-08T07:05:47.618Z,2.20
2023-03-08T07:08:15.584Z,2.37
2023-03-08T07:10:43.624Z,2.53
2023-03-08T07:13:12.907Z,3.07
2023-03-08T07:15:41.446Z,2.80
2023-03-08T07:18:09.545Z,2.40
2023-03-08T07:20:37.586Z,2.60
2023-03-08T07:23:05.801Z,3.17
2023-03-08T07:25:33.917Z,2.47
2023-03-08T07:28:01.890Z,2.60
2023-03-08T07:30:31.351Z,2.03
2023-03-08T07:32:59.368Z,2.60
2023-03-08T07:35:27.386Z,2.47
2023-03-08T07:37:55.518Z,2.47
2023-03-08T07:40:23.703Z,2.57
2023-03-08T07:42:52.198Z,2.30
2023-03-08T07:45:20.350Z,2.53
2023-03-08T07:47:52.406Z,2.10
2023-03-08T07:50:20.748Z,2.50
2023-03-08T07:52:49.068Z,2.43
2023-03-08T07:55:17.292Z,2.33
2023-03-08T07:57:45.326Z,2.80
2023-03-08T08:00:14.135Z,2.00
2023-03-08T08:02:42.186Z,2.33
2023-03-08T08:05:11.711Z,2.00
2023-03-08T08:07:39.757Z,2.10
2023-03-08T08:10:08.824Z,2.10
2023-03-08T08:12:36.810Z,2.40
2023-03-08T08:15:06.748Z,2.97
2023-03-08T08:17:34.822Z,1.87
2023-03-08T08:20:02.823Z,2.10
2023-03-08T08:22:32.112Z,2.03
2023-03-08T08:25:00.114Z,3.03
2023-03-08T08:27:28.054Z,2.83
2023-03-08T08:29:58.144Z,2.00
2023-03-08T08:32:26.226Z,2.30
2023-03-08T08:34:54.365Z,2.40
2023-03-08T08:37:22.977Z,2.20
2023-03-08T08:39:52.311Z,2.10
2023-03-08T08:42:20.314Z,2.40
2023-03-08T08:44:49.562Z,2.47
2023-03-08T08:47:17.724Z,2.37
2023-03-08T08:49:45.701Z,2.13
2023-03-08T08:52:13.683Z,2.67
2023-03-08T08:54:41.881Z,2.90
2023-03-08T08:57:11.206Z,2.30
2023-03-08T08:59:39.285Z,4.60
2023-03-08T09:02:07.501Z,17.03
2023-03-08T09:04:35.688Z,25.77
2023-03-08T09:07:04.372Z,26.67
2023-03-08T09:09:32.326Z,13.47
2023-03-08T09:12:00.439Z,11.10
2023-03-08T09:14:29.782Z,11.27
2023-03-08T09:16:57.805Z,12.57
2023-03-08T09:19:25.855Z,12.33
2023-03-08T09:21:53.945Z,13.83
2023-03-08T09:24:22.033Z,15.10
2023-03-08T09:26:50.137Z,16.03
2023-03-08T09:29:18.163Z,16.77
2023-03-08T09:31:47.639Z,17.80
2023-03-08T09:34:16.507Z,22.57
2023-03-08T09:36:44.425Z,26.87
2023-03-08T09:39:14.122Z,28.23
2023-03-08T09:41:49.373Z,25.60
2023-03-08T09:44:48.891Z,16.53
2023-03-08T09:47:31.140Z,10.00
2023-03-08T09:50:07.893Z,17.57
2023-03-08T09:52:40.000Z,21.00
2023-03-08T09:55:26.279Z,13.20
2023-03-08T09:57:57.373Z,17.80
2023-03-08T10:00:30.299Z,33.20
2023-03-08T10:03:30.074Z,50.83
2023-03-08T10:06:05.365Z,48.50
2023-03-08T10:08:39.234Z,50.07
2023-03-08T10:11:14.737Z,52.27
2023-03-08T10:13:47.725Z,58.03
2023-03-08T10:16:24.444Z,63.17
2023-03-08T10:18:59.593Z,68.77
2023-03-08T10:21:29.167Z,72.03
2023-03-08T10:24:01.573Z,79.73
2023-03-08T10:26:29.937Z,77.17
2023-03-08T10:28:58.066Z,81.13
2023-03-08T10:31:28.278Z,84.43
2023-03-08T10:34:04.551Z,83.77
2023-03-08T10:36:32.903Z,87.63
2023-03-08T10:39:07.011Z,85.67
2023-03-08T10:41:42.140Z,86.60
2023-03-08T10:44:15.508Z,88.57
2023-03-08T10:46:51.010Z,89.90
2023-03-08T10:49:25.800Z,88.47
2023-03-08T10:51:57.960Z,91.03
2023-03-08T10:54:27.630Z,87.03
2023-03-08T10:56:59.057Z,94.87
2023-03-08T10:59:32.458Z,87.17
2023-03-08T11:02:03.631Z,86.23
2023-03-08T11:04:33.120Z,88.87
2023-03-08T11:07:12.706Z,86.97
2023-03-08T11:09:40.719Z,90.93
2023-03-08T11:12:24.622Z,87.97
2023-03-08T11:14:53.373Z,90.47
2023-03-08T11:17:28.183Z,74.23
2023-03-08T11:20:11.093Z,84.50
2023-03-08T11:22:53.249Z,84.57
2023-03-08T11:25:40.661Z,87.47
2023-03-08T11:28:54.098Z,87.67
2023-03-08T11:31:31.581Z,84.23
2023-03-08T11:34:27.053Z,83.73
2023-03-08T11:37:03.773Z,83.73
2023-03-08T11:39:35.040Z,83.80
2023-03-08T11:42:13.770Z,83.47
2023-03-08T11:45:01.038Z,82.10
2023-03-08T11:48:00.225Z,79.93
2023-03-08T11:50:30.574Z,79.23
2023-03-08T11:53:11.394Z,84.83
2023-03-08T11:55:57.440Z,82.13
2023-03-08T11:58:31.891Z,82.07
2023-03-08T12:01:03.009Z,87.27
2023-03-08T12:03:36.082Z,84.37
2023-03-08T12:06:16.226Z,80.53
2023-03-08T12:08:57.187Z,80.83
2023-03-08T12:11:30.092Z,82.57
2023-03-08T12:14:05.183Z,86.30
2023-03-08T12:16:41.701Z,80.07
2023-03-08T12:19:20.327Z,86.90
2023-03-08T12:21:52.520Z,86.23
2023-03-08T12:24:33.305Z,85.07
2023-03-08T12:27:06.280Z,87.00
2023-03-08T12:29:38.966Z,85.10
2023-03-08T12:32:08.286Z,86.50
2023-03-08T12:34:41.333Z,82.27
2023-03-08T12:37:21.708Z,84.07
2023-03-08T12:40:05.907Z,82.27
2023-03-08T12:42:37.577Z,86.30
2023-03-08T12:45:26.202Z,84.20
2023-03-08T12:48:02.005Z,87.70
2023-03-08T12:50:31.406Z,82.83
2023-03-08T12:52:59.600Z,86.33
2023-03-08T12:55:31.979Z,83.20
2023-03-08T12:58:02.500Z,87.63
2023-03-08T13:00:32.754Z,85.77
2023-03-08T13:03:04.437Z,87.43
2023-03-08T13:05:36.373Z,80.10
2023-03-08T13:08:23.425Z,75.93
2023-03-08T13:11:04.068Z,80.87
2023-03-08T13:13:41.539Z,81.10
2023-03-08T13:16:22.727Z,77.33
2023-03-08T13:19:01.602Z,82.47
2023-03-08T13:21:35.478Z,77.03
2023-03-08T13:24:12.526Z,79.00
2023-03-08T13:26:54.180Z,72.07
2023-03-08T13:29:22.631Z,70.83
2023-03-08T13:31:52.217Z,68.33
2023-03-08T13:34:31.200Z,59.40
2023-03-08T13:36:59.902Z,62.47
2023-03-08T13:39:30.115Z,57.60
2023-03-08T13:42:09.463Z,59.57
2023-03-08T13:44:37.836Z,54.40
2023-03-08T13:47:18.356Z,57.50
2023-03-08T13:49:46.810Z,55.87
2023-03-08T13:52:18.746Z,57.33
2023-03-08T13:54:49.091Z,58.93
2023-03-08T13:57:23.767Z,59.93
2023-03-08T13:59:53.387Z,58.87
2023-03-08T14:02:23.692Z,58.73
2023-03-08T14:04:52.088Z,64.43
2023-03-08T14:07:23.556Z,61.07
2023-03-08T14:09:51.969Z,60.63
2023-03-08T14:12:24.056Z,59.23
2023-03-08T14:14:55.547Z,59.33
2023-03-08T14:17:27.041Z,54.70
2023-03-08T14:19:57.078Z,60.23
2023-03-08T14:22:38.811Z,57.47
2023-03-08T14:25:17.994Z,59.30
2023-03-08T14:27:47.420Z,60.00
2023-03-08T14:30:18.431Z,61.23
2023-03-08T14:32:59.174Z,58.00
2023-03-08T14:35:29.493Z,54.60
2023-03-08T14:37:58.923Z,59.27
2023-03-08T14:40:30.592Z,56.43
2023-03-08T14:43:02.349Z,55.53
2023-03-08T14:45:35.215Z,51.00
2023-03-08T14:48:15.947Z,57.57
2023-03-08T14:50:56.276Z,53.93
2023-03-08T14:53:29.207Z,52.70
2023-03-08T14:55:57.958Z,51.37
2023-03-08T14:58:30.016Z,53.87
2023-03-08T15:01:01.001Z,52.63
2023-03-08T15:03:29.830Z,52.40
2023-03-08T15:05:58.621Z,51.63
2023-03-08T15:08:26.918Z,53.57
2023-03-08T15:10:55.156Z,53.00
2023-03-08T15:13:24.552Z,53.93
2023-03-08T15:15:54.013Z,53.37
2023-03-08T15:18:22.118Z,54.00
2023-03-08T15:20:51.589Z,55.83
2023-03-08T15:23:22.820Z,51.23
2023-03-08T15:25:51.162Z,50.70
2023-03-08T15:28:20.782Z,50.17
2023-03-08T15:30:48.938Z,50.97
2023-03-08T15:33:28.258Z,48.37
2023-03-08T15:36:03.412Z,49.37
2023-03-08T15:38:33.347Z,56.13
2023-03-08T15:41:11.249Z,54.70
2023-03-08T15:43:50.477Z,51.67
2023-03-08T15:46:23.199Z,50.37
2023-03-08T15:48:56.633Z,49.50
2023-03-08T15:51:34.227Z,45.83
2023-03-08T15:54:06.340Z,48.80
2023-03-08T15:56:39.499Z,46.53
2023-03-08T15:59:09.013Z,50.67
2023-03-08T16:01:45.552Z,46.83
2023-03-08T16:04:20.315Z,48.57
2023-03-08T16:06:49.042Z,46.33
2023-03-08T16:09:18.057Z,45.40
2023-03-08T16:11:48.207Z,42.10
2023-03-08T16:14:18.963Z,44.37
2023-03-08T16:16:52.115Z,44.23
2023-03-08T16:19:21.490Z,48.27
2023-03-08T16:21:51.279Z,46.50
2023-03-08T16:24:19.239Z,43.97
2023-03-08T16:26:47.202Z,42.07
2023-03-08T16:29:15.162Z,43.37
2023-03-08T16:31:43.597Z,43.07
2023-03-08T16:34:12.593Z,45.57
2023-03-08T16:36:41.988Z,38.63
2023-03-08T16:39:10.313Z,33.40
2023-03-08T16:41:39.913Z,30.17
2023-03-08T16:44:17.218Z,26.47
2023-03-08T16:46:45.224Z,28.50
2023-03-08T16:49:13.356Z,32.07
2023-03-08T16:51:42.935Z,33.00
2023-03-08T16:54:11.638Z,30.37
2023-03-08T16:56:40.692Z,28.53
2023-03-08T16:59:08.712Z,33.37
2023-03-08T17:01:36.798Z,27.93
2023-03-08T17:04:05.143Z,30.07
2023-03-08T17:06:33.716Z,29.13
2023-03-08T17:09:03.315Z,30.00
2023-03-08T17:11:33.534Z,28.23
2023-03-08T17:14:03.628Z,29.77
2023-03-08T17:16:33.169Z,30.33
2023-03-08T17:19:01.870Z,33.87
2023-03-08T17:21:31.226Z,34.10
2023-03-08T17:24:00.822Z,34.07
2023-03-08T17:26:30.294Z,36.00
2023-03-08T17:28:58.264Z,34.03
2023-03-08T17:31:26.234Z,31.27
2023-03-08T17:33:54.284Z,31.27
2023-03-08T17:36:22.773Z,31.20
2023-03-08T17:38:54.040Z,24.47
2023-03-08T17:41:22.508Z,28.63
2023-03-08T17:43:52.208Z,31.17
2023-03-08T17:46:22.602Z,30.67
2023-03-08T17:48:52.288Z,28.83
2023-03-08T17:51:21.838Z,32.17
2023-03-08T17:53:50.145Z,28.83
2023-03-08T17:56:21.130Z,26.90
2023-03-08T17:58:50.869Z,27.37
2023-03-08T18:01:20.467Z,28.83
2023-03-08T18:03:49.422Z,26.10
2023-03-08T18:06:26.335Z,30.90
2023-03-08T18:08:54.324Z,30.80
2023-03-08T18:11:22.370Z,28.90
2023-03-08T18:13:52.161Z,28.07
2023-03-08T18:16:20.455Z,25.60
2023-03-08T18:18:49.707Z,23.07
2023-03-08T18:21:18.466Z,25.63
2023-03-08T18:23:47.079Z,28.60
2023-03-08T18:26:17.407Z,22.90
2023-03-08T18:28:45.413Z,24.73
2023-03-08T18:31:16.502Z,26.13
2023-03-08T18:33:46.062Z,25.40
2023-03-08T18:36:14.297Z,22.40
2023-03-08T18:38:42.974Z,25.27
2023-03-08T18:41:15.457Z,28.10
2023-03-08T18:43:43.509Z,24.77
2023-03-08T18:46:14.801Z,27.10
2023-03-08T18:48:43.496Z,23.27
2023-03-08T18:51:11.491Z,29.93
2023-03-08T18:53:40.219Z,29.60
2023-03-08T18:56:08.807Z,28.53
2023-03-08T18:58:36.808Z,28.97
2023-03-08T19:01:11.856Z,24.20
2023-03-08T19:03:42.203Z,27.73
2023-03-08T19:06:10.333Z,29.07
2023-03-08T19:08:38.838Z,19.40
2023-03-08T19:11:13.832Z,20.13
2023-03-08T19:13:42.567Z,26.67
2023-03-08T19:16:19.885Z,30.70
2023-03-08T19:18:51.023Z,28.77
2023-03-08T19:21:20.808Z,31.60
2023-03-08T19:23:49.184Z,27.33
2023-03-08T19:26:36.871Z,26.23
2023-03-08T19:29:07.263Z,17.77
2023-03-08T19:31:37.321Z,30.63
2023-03-08T19:34:06.943Z,26.80
2023-03-08T19:36:36.450Z,28.33
2023-03-08T19:39:05.588Z,28.87
2023-03-08T19:41:33.665Z,26.97
2023-03-08T19:44:06.713Z,27.60
2023-03-08T19:46:34.952Z,29.47
2023-03-08T19:49:03.377Z,24.80
2023-03-08T19:51:32.877Z,23.93
2023-03-08T19:54:00.929Z,26.00
2023-03-08T19:56:28.904Z,23.43
2023-03-08T19:58:57.185Z,27.37
2023-03-08T20:01:25.377Z,20.40
2023-03-08T20:03:53.959Z,21.47
2023-03-08T20:06:25.892Z,17.57
2023-03-08T20:08:56.907Z,16.60
2023-03-08T20:11:25.270Z,18.80
2023-03-08T20:13:53.302Z,17.87
2023-03-08T20:16:22.338Z,21.00
2023-03-08T20:18:51.495Z,17.43
2023-03-08T20:21:20.757Z,16.40
2023-03-08T20:23:55.060Z,13.53
2023-03-08T20:26:26.833Z,13.83
2023-03-08T20:28:56.140Z,8.43
2023-03-08T20:31:24.771Z,10.30
2023-03-08T20:33:53.094Z,8.03
2023-03-08T20:36:21.384Z,9.30
2023-03-08T20:38:49.385Z,7.40
2023-03-08T20:41:19.083Z,6.77
2023-03-08T20:43:49.758Z,7.77
2023-03-08T20:46:19.494Z,8.53
2023-03-08T20:48:47.946Z,8.27
2023-03-08T20:51:18.023Z,7.00
2023-03-08T20:53:46.463Z,7.93
2023-03-08T20:56:16.165Z,7.17
2023-03-08T20:58:44.209Z,7.23
2023-03-08T21:01:15.240Z,9.53
2023-03-08T21:03:43.305Z,7.33
2023-03-08T21:06:13.147Z,7.73
2023-03-08T21:08:41.485Z,7.67
2023-03-08T21:11:09.633Z,7.77
2023-03-08T21:13:37.704Z,7.10
2023-03-08T21:16:07.472Z,7.40
2023-03-08T21:18:36.975Z,8.30
2023-03-08T21:21:05.264Z,10.70
2023-03-08T21:23:33.205Z,7.67
2023-03-08T21:26:01.682Z,8.30
2023-03-08T21:28:29.639Z,9.53
2023-03-08T21:30:57.729Z,9.57
2023-03-08T21:33:25.850Z,8.93
2023-03-08T21:35:58.199Z,6.30
2023-03-08T21:38:26.179Z,8.77
2023-03-08T21:40:54.183Z,8.20
2023-03-08T21:43:22.163Z,8.87
2023-03-08T21:45:50.152Z,6.90
2023-03-08T21:48:18.106Z,8.60
2023-03-08T21:50:46.103Z,7.90
2023-03-08T21:53:15.612Z,9.20
2023-03-08T21:55:43.765Z,7.63
2023-03-08T21:58:15.777Z,8.60
2023-03-08T22:00:43.854Z,8.03
2023-03-08T22:03:11.937Z,8.57
2023-03-08T22:05:39.916Z,7.47
2023-03-08T22:08:07.902Z,7.50
2023-03-08T22:10:37.229Z,8.03
2023-03-08T22:13:05.186Z,9.40
2023-03-08T22:15:33.168Z,10.37
2023-03-08T22:18:01.109Z,7.87
2023-03-08T22:20:29.068Z,8.97
2023-03-08T22:22:57.101Z,7.33
2023-03-08T22:25:25.496Z,12.20
2023-03-08T22:27:55.314Z,9.30
2023-03-08T22:30:24.127Z,8.60
2023-03-08T22:32:52.599Z,7.93
2023-03-08T22:35:22.411Z,8.27
2023-03-08T22:37:51.774Z,7.80
2023-03-08T22:40:20.521Z,8.00
2023-03-08T22:42:48.855Z,6.97
2023-03-08T22:45:19.057Z,7.50
2023-03-08T22:47:47.573Z,8.00
2023-03-08T22:50:16.142Z,9.50
2023-03-08T22:52:44.707Z,9.63
2023-03-08T22:55:13.897Z,8.53
2023-03-08T22:57:42.335Z,8.80
2023-03-08T23:00:14.540Z,7.10
2023-03-08T23:02:45.093Z,9.87
2023-03-08T23:05:14.367Z,11.67
2023-03-08T23:07:42.727Z,10.17
2023-03-08T23:10:13.286Z,11.60
2023-03-08T23:12:42.076Z,11.40
2023-03-08T23:15:11.406Z,11.30
2023-03-08T23:17:40.386Z,13.97
2023-03-08T23:20:12.207Z,11.83
2023-03-08T23:22:41.237Z,12.47
2023-03-08T23:25:11.407Z,13.23
2023-03-08T23:27:41.382Z,12.33
2023-03-08T23:30:16.471Z,16.43
2023-03-08T23:32:50.176Z,15.27
2023-03-08T23:35:22.082Z,13.97
2023-03-08T23:37:51.830Z,13.50
2023-03-08T23:40:24.739Z,13.63
2023-03-08T23:42:54.707Z,12.93
2023-03-08T23:45:27.157Z,12.80
2023-03-08T23:47:57.804Z,14.17
2023-03-08T23:50:28.771Z,14.97
2023-03-08T23:52:58.348Z,13.23
2023-03-08T23:55:26.452Z,14.20
2023-03-08T23:57:54.437Z,15.73
